Pharoah, Oklahoma
Current Conditions -  °F | °C
As of 1:35 AM on Wednesday 26 Nov 2014 (Local Time) from KOKM Reporting Station
Clear Clear  
Wind Chill: 31°   Ceiling: Unl
Heat Index: 36°   Visibility: 10mi
Dew Point: 28°   Wind: 7mph
Humidity: 73%   Direction: 110°ESE
Pressure: 30"   Gusts: NA
Location:  35.3761°N, 96.1179°W
Report Text: KOKM 260735Z AUTO 11006KT 10SM CLR 02/M02 A3000 RMK AO2 T00241020
Loading
Personal Weather Stations






























Interactive Weather Map New forecast layout! Learn more

10-Day Weather Forecast

Advertisements
Track Severe Weather on mobile